Time;durP1;ratioP1;P1;durP2;ratioP2;P2;SDS_P1;SDS_P2;PMS_P1;PMS_P2;Temp;Humidity;BMP_temperature;BMP_pressure;BME280_temperature;BME280_humidity;BME280_pressure;Samples;Min_cycle;Max_cycle;Signal;HPM_P1;HPM_P2
2023/06/21 00:00:14;;;;;;;20.02;17.52;;;19.50;99.90;;;;;;5061843;28;20167;-81
2023/06/21 00:02:43;;;;;;;21.98;18.13;;;19.40;99.90;;;;;;5066710;28;20051;-81
2023/06/21 00:05:09;;;;;;;20.65;18.15;;;19.40;99.90;;;;;;5068243;28;20439;-81
2023/06/21 00:07:35;;;;;;;20.73;18.52;;;19.40;99.90;;;;;;5069665;28;20046;-81
2023/06/21 00:10:01;;;;;;;21.83;19.52;;;19.40;99.90;;;;;;5064257;28;20047;-81
2023/06/21 00:12:28;;;;;;;23.13;19.50;;;19.40;99.90;;;;;;5062660;28;20128;-81
2023/06/21 00:14:53;;;;;;;22.85;19.95;;;19.40;99.90;;;;;;5065277;28;20055;-81
2023/06/21 00:17:19;;;;;;;22.50;20.13;;;19.40;99.90;;;;;;5066163;28;20408;-81
2023/06/21 00:19:47;;;;;;;22.48;18.85;;;19.40;99.90;;;;;;5066811;28;20123;-81
2023/06/21 00:22:14;;;;;;;21.92;19.20;;;19.40;99.90;;;;;;5062619;28;20040;-81
2023/06/21 00:24:40;;;;;;;21.85;18.88;;;19.30;99.90;;;;;;5082896;28;20043;-81
2023/06/21 00:27:06;;;;;;;22.23;19.70;;;19.30;99.90;;;;;;5088239;28;20040;-81
2023/06/21 00:29:31;;;;;;;22.02;18.52;;;19.20;99.90;;;;;;5073189;28;20135;-81
2023/06/21 00:31:58;;;;;;;25.23;20.15;;;19.20;99.90;;;;;;5069007;28;20035;-81
2023/06/21 00:34:29;;;;;;;22.17;19.45;;;19.20;99.90;;;;;;5087356;28;20114;-81
2023/06/21 00:36:55;;;;;;;23.50;19.52;;;19.20;99.90;;;;;;5070258;27;20107;-81
2023/06/21 00:39:40;;;;;;;21.27;18.98;;;19.20;99.90;;;;;;5073357;28;20596;-81
2023/06/21 00:42:07;;;;;;;23.95;20.27;;;19.20;99.90;;;;;;5069760;28;20039;-81
2023/06/21 00:44:33;;;;;;;22.08;19.52;;;19.20;99.90;;;;;;5066912;28;20645;-81
2023/06/21 00:46:58;;;;;;;24.23;19.90;;;19.20;99.90;;;;;;5085788;27;20043;-81
2023/06/21 00:49:28;;;;;;;26.85;20.30;;;19.10;99.90;;;;;;5092066;27;20093;-81
2023/06/21 00:51:57;;;;;;;24.63;19.75;;;19.20;99.90;;;;;;5094152;27;20399;-81
2023/06/21 00:54:29;;;;;;;23.95;19.90;;;19.20;99.90;;;;;;5085589;28;20514;-82
2023/06/21 00:57:03;;;;;;;23.90;20.05;;;19.20;99.90;;;;;;5069819;28;20051;-81
2023/06/21 00:59:45;;;;;;;;;;;19.20;99.90;;;;;;5087248;28;20111;-81
2023/06/21 01:02:10;;;;;;;21.52;19.00;;;19.20;99.90;;;;;;5077367;27;19920;-81
2023/06/21 01:04:36;;;;;;;26.33;20.02;;;19.20;99.90;;;;;;5067071;28;20047;-84
2023/06/21 01:07:15;;;;;;;24.10;19.63;;;19.20;99.90;;;;;;5071331;28;20042;-84
2023/06/21 01:10:02;;;;;;;26.77;19.23;;;19.20;99.90;;;;;;5080439;27;20047;-84
2023/06/21 01:12:46;;;;;;;22.40;19.40;;;19.30;99.90;;;;;;5082552;28;20043;-84
2023/06/21 01:15:28;;;;;;;23.50;19.67;;;19.30;99.90;;;;;;5064290;27;20040;-84
2023/06/21 01:17:59;;;;;;;25.40;18.90;;;19.20;99.90;;;;;;5073807;27;20080;-84
2023/06/21 01:20:29;;;;;;;21.95;18.65;;;19.20;99.90;;;;;;5066975;28;20095;-84
2023/06/21 01:23:03;;;;;;;22.02;18.48;;;19.20;99.90;;;;;;5056304;28;20055;-84
2023/06/21 01:25:52;;;;;;;;;;;19.20;99.90;;;;;;5084891;27;20046;-84
2023/06/21 01:28:45;;;;;;;21.75;17.90;;;19.20;99.90;;;;;;5094963;27;19930;-84
2023/06/21 01:31:15;;;;;;;20.42;18.13;;;19.20;99.90;;;;;;5088574;27;20039;-84
2023/06/21 01:33:41;;;;;;;23.40;18.13;;;19.30;99.90;;;;;;5089676;27;20067;-84
2023/06/21 01:36:09;;;;;;;22.30;18.63;;;19.20;99.90;;;;;;5069020;27;20432;-84
2023/06/21 01:38:36;;;;;;;22.63;19.23;;;19.30;99.90;;;;;;5090149;27;20042;-84
2023/06/21 01:41:01;;;;;;;19.95;17.13;;;19.30;99.90;;;;;;5063813;27;20365;-84
2023/06/21 01:43:29;;;;;;;22.83;18.77;;;19.20;99.90;;;;;;5068629;27;20038;-84
2023/06/21 01:45:56;;;;;;;23.38;18.65;;;19.20;99.90;;;;;;5084146;27;20046;-84
2023/06/21 01:48:23;;;;;;;22.73;17.88;;;19.20;99.90;;;;;;5073682;27;20100;-84
2023/06/21 01:50:50;;;;;;;20.55;18.05;;;19.20;99.90;;;;;;5091111;27;20521;-84
2023/06/21 01:53:18;;;;;;;22.88;19.23;;;19.20;99.90;;;;;;5078992;28;20429;-84
2023/06/21 01:55:49;;;;;;;23.88;19.02;;;19.30;99.90;;;;;;5071296;27;20040;-84
2023/06/21 01:58:16;;;;;;;24.67;19.58;;;19.20;99.90;;;;;;5070584;27;20040;-83
2023/06/21 02:00:43;;;;;;;24.75;19.30;;;19.20;99.90;;;;;;5085827;27;20374;-84
2023/06/21 02:03:11;;;;;;;25.27;19.45;;;19.20;99.90;;;;;;5092363;27;20039;-84
2023/06/21 02:05:39;;;;;;;26.77;20.25;;;19.20;99.90;;;;;;5084809;28;20035;-84
2023/06/21 02:08:09;;;;;;;25.52;19.73;;;19.20;99.90;;;;;;5071646;27;20333;-84
2023/06/21 02:10:36;;;;;;;24.60;19.70;;;19.20;99.90;;;;;;5087566;27;20038;-84
2023/06/21 02:13:01;;;;;;;26.23;20.65;;;19.20;99.90;;;;;;5076747;27;20039;-84
2023/06/21 02:15:27;;;;;;;25.08;20.50;;;19.20;99.90;;;;;;5072864;27;20106;-84
2023/06/21 02:17:53;;;;;;;26.27;21.33;;;19.20;99.90;;;;;;5087714;27;20104;-84
2023/06/21 02:20:21;;;;;;;24.55;20.88;;;19.20;99.90;;;;;;5076392;27;20349;-84
2023/06/21 02:22:48;;;;;;;27.30;22.05;;;19.20;99.90;;;;;;5066799;28;20121;-84
2023/06/21 02:25:17;;;;;;;28.00;22.80;;;19.20;99.90;;;;;;5073542;28;20064;-84
2023/06/21 02:27:42;;;;;;;31.70;24.80;;;19.30;99.90;;;;;;5067029;28;20035;-84
2023/06/21 02:30:09;;;;;;;32.70;24.23;;;19.20;99.90;;;;;;5078789;28;20050;-84
2023/06/21 02:32:34;;;;;;;30.33;24.67;;;19.20;99.90;;;;;;5087371;28;20043;-84
2023/06/21 02:35:00;;;;;;;30.63;23.95;;;19.20;99.90;;;;;;5068390;28;20039;-84
2023/06/21 02:37:29;;;;;;;33.13;26.63;;;19.20;99.90;;;;;;5062928;28;20035;-84
2023/06/21 02:39:55;;;;;;;34.70;26.98;;;19.20;99.90;;;;;;5065729;27;20047;-84
2023/06/21 02:42:21;;;;;;;33.70;26.88;;;19.20;99.90;;;;;;5082075;28;20864;-84
2023/06/21 02:44:47;;;;;;;35.10;28.00;;;19.20;99.90;;;;;;5079827;27;20118;-84
2023/06/21 02:47:12;;;;;;;36.10;27.77;;;19.10;99.90;;;;;;5072958;27;20544;-84
2023/06/21 02:49:38;;;;;;;36.88;29.40;;;19.20;99.90;;;;;;5069558;27;20541;-84
2023/06/21 02:52:04;;;;;;;44.70;29.40;;;19.10;99.90;;;;;;5087398;27;20144;-84
2023/06/21 02:54:30;;;;;;;37.83;29.80;;;19.10;99.90;;;;;;5070619;27;20042;-84
2023/06/21 02:56:56;;;;;;;37.92;29.77;;;19.10;99.90;;;;;;5069601;27;20151;-84
2023/06/21 02:59:28;;;;;;;39.72;30.35;;;19.00;99.90;;;;;;5063086;28;20332;-83
2023/06/21 03:01:55;;;;;;;40.42;31.45;;;19.10;99.90;;;;;;5074285;27;20110;-84
2023/06/21 03:04:21;;;;;;;44.33;33.08;;;19.00;99.90;;;;;;5087696;27;20456;-84
2023/06/21 03:06:46;;;;;;;35.60;30.17;;;19.00;99.90;;;;;;5074549;27;20034;-84
2023/06/21 03:09:12;;;;;;;47.17;32.33;;;19.00;99.90;;;;;;5086845;28;20441;-84
2023/06/21 03:11:40;;;;;;;39.13;32.13;;;18.90;99.90;;;;;;5072620;28;20040;-83
2023/06/21 03:14:06;;;;;;;43.70;32.38;;;18.90;99.90;;;;;;5066568;27;20131;-84
2023/06/21 03:16:32;;;;;;;44.97;31.35;;;18.80;99.90;;;;;;5070899;28;20204;-84
2023/06/21 03:18:57;;;;;;;41.33;32.38;;;18.80;99.90;;;;;;5087628;28;20032;-84
2023/06/21 03:21:23;;;;;;;42.67;32.38;;;18.80;99.90;;;;;;5068713;28;20036;-84
2023/06/21 03:23:49;;;;;;;45.10;33.25;;;18.80;99.90;;;;;;5080442;28;20081;-83
2023/06/21 03:26:15;;;;;;;51.30;34.10;;;18.80;99.90;;;;;;5066658;27;20039;-84
2023/06/21 03:28:43;;;;;;;48.05;34.95;;;18.80;99.90;;;;;;5084575;27;20042;-84
2023/06/21 03:31:09;;;;;;;50.60;34.45;;;18.80;99.90;;;;;;5064077;28;20050;-84
2023/06/21 03:33:34;;;;;;;52.95;35.80;;;18.90;99.90;;;;;;5069957;28;20042;-84
2023/06/21 03:36:00;;;;;;;50.70;36.35;;;18.90;99.90;;;;;;5084864;28;20039;-83
2023/06/21 03:38:26;;;;;;;52.08;35.33;;;18.90;99.90;;;;;;5071988;28;20027;-83
2023/06/21 03:40:52;;;;;;;49.83;37.40;;;18.90;99.90;;;;;;5066562;28;20059;-84
2023/06/21 03:43:17;;;;;;;50.25;35.28;;;18.80;99.90;;;;;;5070660;27;20039;-84
2023/06/21 03:45:43;;;;;;;49.63;36.17;;;18.80;99.90;;;;;;5064802;28;20161;-83
2023/06/21 03:48:09;;;;;;;49.72;34.90;;;18.80;99.90;;;;;;5061664;28;20523;-84
2023/06/21 03:50:34;;;;;;;48.20;34.53;;;18.80;99.90;;;;;;5079741;28;20061;-83
2023/06/21 03:53:00;;;;;;;50.55;36.72;;;18.80;99.90;;;;;;5083949;28;20028;-84
2023/06/21 03:55:26;;;;;;;49.70;36.67;;;18.80;99.90;;;;;;5087510;28;20193;-84
2023/06/21 03:57:52;;;;;;;49.20;36.10;;;18.80;99.90;;;;;;5063560;28;20066;-84
2023/06/21 04:00:18;;;;;;;57.28;38.38;;;18.80;99.90;;;;;;5068175;28;20035;-83
2023/06/21 04:02:46;;;;;;;53.83;37.97;;;18.90;99.90;;;;;;5068770;28;20097;-83
2023/06/21 04:05:12;;;;;;;50.80;36.42;;;18.90;99.90;;;;;;5063698;28;20477;-84
2023/06/21 04:07:38;;;;;;;51.55;37.05;;;18.90;99.90;;;;;;5071533;28;20047;-83
2023/06/21 04:10:05;;;;;;;50.85;36.58;;;18.90;99.90;;;;;;5084341;27;20040;-83
2023/06/21 04:12:31;;;;;;;56.25;36.20;;;18.90;99.90;;;;;;5076882;28;20035;-83
2023/06/21 04:15:00;;;;;;;50.85;35.90;;;18.80;99.90;;;;;;5073777;27;20418;-83
2023/06/21 04:17:30;;;;;;;49.97;36.50;;;18.90;99.90;;;;;;5074323;27;20332;-84
2023/06/21 04:19:56;;;;;;;54.30;37.00;;;18.90;99.90;;;;;;5073133;27;20050;-83
2023/06/21 04:22:23;;;;;;;53.28;36.40;;;19.00;99.90;;;;;;5076909;28;20040;-84
2023/06/21 04:24:49;;;;;;;54.97;36.28;;;19.00;99.90;;;;;;5077323;27;20043;-84
2023/06/21 04:27:15;;;;;;;54.33;38.05;;;19.10;99.90;;;;;;5073584;27;20164;-84
2023/06/21 04:29:40;;;;;;;53.10;35.67;;;19.10;99.90;;;;;;5084829;28;20123;-83
2023/06/21 04:32:09;;;;;;;50.22;36.30;;;19.00;99.90;;;;;;5089572;27;20476;-84
2023/06/21 04:34:38;;;;;;;51.88;35.15;;;19.00;99.90;;;;;;5075741;27;20474;-84
2023/06/21 04:37:05;;;;;;;48.20;36.58;;;18.90;99.90;;;;;;5084357;27;20346;-83
2023/06/21 04:39:31;;;;;;;53.13;36.42;;;19.00;99.90;;;;;;5070515;28;20378;-83
2023/06/21 04:42:00;;;;;;;51.97;36.17;;;19.00;99.90;;;;;;5065668;28;20422;-83
2023/06/21 04:44:27;;;;;;;56.38;35.97;;;19.10;99.90;;;;;;5059770;28;20052;-83
2023/06/21 04:46:55;;;;;;;50.55;36.05;;;19.20;99.90;;;;;;5068956;27;20159;-84
2023/06/21 04:49:25;;;;;;;48.58;35.00;;;19.20;99.90;;;;;;5089714;27;20086;-83
2023/06/21 04:51:52;;;;;;;49.38;34.97;;;19.20;99.90;;;;;;5085089;27;20581;-83
2023/06/21 04:54:22;;;;;;;47.55;33.75;;;19.30;99.90;;;;;;5092227;27;20056;-83
2023/06/21 04:56:49;;;;;;;45.55;32.65;;;19.30;99.90;;;;;;5072859;28;20512;-83
2023/06/21 04:59:15;;;;;;;47.83;33.47;;;19.30;99.90;;;;;;5066588;27;20028;-83
2023/06/21 05:01:41;;;;;;;42.28;30.77;;;19.30;99.90;;;;;;5083193;27;20038;-83
2023/06/21 05:04:07;;;;;;;46.90;32.38;;;19.40;99.90;;;;;;5080519;28;20458;-83
2023/06/21 05:06:32;;;;;;;41.75;29.13;;;19.40;99.90;;;;;;5085796;27;20050;-83
2023/06/21 05:08:58;;;;;;;40.67;28.40;;;19.40;99.90;;;;;;5072311;27;20114;-83
2023/06/21 05:11:24;;;;;;;37.38;26.95;;;19.40;99.90;;;;;;5091140;27;20046;-83
2023/06/21 05:13:49;;;;;;;36.80;26.50;;;19.50;99.90;;;;;;5072069;27;20473;-83
2023/06/21 05:16:18;;;;;;;35.95;26.83;;;19.60;99.90;;;;;;5070075;27;20179;-83
2023/06/21 05:18:43;;;;;;;35.80;25.52;;;19.50;99.90;;;;;;5071952;27;20124;-83
2023/06/21 05:21:09;;;;;;;37.65;25.80;;;19.70;99.90;;;;;;5090429;27;20071;-83
2023/06/21 05:23:35;;;;;;;33.28;24.25;;;19.70;99.90;;;;;;5070763;28;20352;-83
2023/06/21 05:26:01;;;;;;;36.97;25.40;;;19.70;99.90;;;;;;5069655;27;20048;-83
2023/06/21 05:28:26;;;;;;;31.80;22.90;;;19.70;99.90;;;;;;5067610;28;20047;-83
2023/06/21 05:30:52;;;;;;;33.20;23.00;;;19.80;99.90;;;;;;5069334;28;20036;-83
2023/06/21 05:33:17;;;;;;;32.83;24.50;;;19.70;99.90;;;;;;5063216;27;20313;-83
2023/06/21 05:35:46;;;;;;;31.85;22.17;;;19.70;99.90;;;;;;5087220;27;21380;-82
2023/06/21 05:38:12;;;;;;;35.20;23.85;;;19.60;99.90;;;;;;5087133;28;20035;-83
2023/06/21 05:40:37;;;;;;;33.88;22.52;;;19.80;99.90;;;;;;5073211;27;20055;-83
2023/06/21 05:43:04;;;;;;;30.20;21.52;;;19.90;99.90;;;;;;5068683;27;20366;-83
2023/06/21 05:45:34;;;;;;;28.77;20.58;;;19.70;99.90;;;;;;5085062;27;20058;-83
2023/06/21 05:48:00;;;;;;;30.38;20.92;;;19.70;99.90;;;;;;5083954;28;20054;-83
2023/06/21 05:50:30;;;;;;;27.20;19.50;;;19.80;99.90;;;;;;5086366;28;20547;-83
2023/06/21 05:52:59;;;;;;;32.58;20.17;;;19.80;99.90;;;;;;5065639;27;20077;-83
2023/06/21 05:55:24;;;;;;;30.40;18.70;;;19.80;99.90;;;;;;5071018;28;20043;-83
2023/06/21 05:57:50;;;;;;;27.80;18.17;;;19.80;99.90;;;;;;5057409;28;20457;-83
2023/06/21 06:00:17;;;;;;;24.13;17.20;;;19.80;99.90;;;;;;5076787;28;20119;-82
2023/06/21 06:02:45;;;;;;;24.45;17.45;;;19.80;99.90;;;;;;5066712;27;20032;-83
2023/06/21 06:05:11;;;;;;;24.45;17.25;;;19.80;99.90;;;;;;5065226;28;20426;-83
2023/06/21 06:07:39;;;;;;;22.15;16.95;;;20.10;99.90;;;;;;5082028;27;20042;-83
2023/06/21 06:10:05;;;;;;;25.98;17.77;;;20.10;99.90;;;;;;5091154;27;20035;-83
2023/06/21 06:12:34;;;;;;;34.42;17.23;;;20.20;99.90;;;;;;5085313;27;20375;-83
2023/06/21 06:15:00;;;;;;;25.10;16.73;;;20.10;99.90;;;;;;5067801;28;20039;-82
2023/06/21 06:17:25;;;;;;;23.55;15.60;;;20.20;99.90;;;;;;5064212;27;20043;-82
2023/06/21 06:19:51;;;;;;;25.83;16.80;;;20.30;99.90;;;;;;5088393;27;20054;-83
2023/06/21 06:22:16;;;;;;;25.65;15.68;;;20.30;99.90;;;;;;5072059;27;20035;-83
2023/06/21 06:24:42;;;;;;;23.00;14.88;;;20.30;99.90;;;;;;5065571;28;20069;-83
2023/06/21 06:27:08;;;;;;;21.27;14.82;;;20.20;99.90;;;;;;5065759;28;20522;-82
2023/06/21 06:29:40;;;;;;;23.13;15.38;;;20.30;99.90;;;;;;5079950;28;20060;-82
2023/06/21 06:32:06;;;;;;;24.33;15.32;;;20.10;99.90;;;;;;5076485;27;20097;-82
2023/06/21 06:34:32;;;;;;;19.02;13.63;;;20.30;99.90;;;;;;5072178;28;20432;-82
2023/06/21 06:36:57;;;;;;;19.00;13.32;;;20.40;99.90;;;;;;5067393;28;20578;-82
2023/06/21 06:39:23;;;;;;;21.45;14.10;;;20.50;99.90;;;;;;5075443;27;20399;-82
2023/06/21 06:41:49;;;;;;;22.00;14.70;;;20.40;99.90;;;;;;5066573;28;20035;-82
2023/06/21 06:44:14;;;;;;;19.10;12.95;;;20.40;99.90;;;;;;5082626;28;20050;-83
2023/06/21 06:46:40;;;;;;;19.40;13.25;;;20.50;99.90;;;;;;5068254;27;20039;-82
2023/06/21 06:49:05;;;;;;;20.15;13.35;;;20.60;99.90;;;;;;5092322;27;20034;-82
2023/06/21 06:51:31;;;;;;;20.15;12.85;;;20.80;99.90;;;;;;5091261;28;20065;-82
2023/06/21 06:53:57;;;;;;;20.73;12.95;;;20.80;99.90;;;;;;5065485;28;20469;-82
2023/06/21 06:56:22;;;;;;;18.52;12.35;;;21.00;99.90;;;;;;5082232;28;20161;-82
2023/06/21 06:58:48;;;;;;;15.52;11.48;;;21.10;99.90;;;;;;5077107;27;20134;-83
2023/06/21 07:01:16;;;;;;;16.80;12.65;;;21.20;99.90;;;;;;5066622;28;20078;-82
2023/06/21 07:03:42;;;;;;;15.63;11.52;;;21.00;99.90;;;;;;5063780;28;20031;-82
2023/06/21 07:06:07;;;;;;;20.48;11.70;;;21.30;99.90;;;;;;5059376;28;20522;-82
2023/06/21 07:08:33;;;;;;;14.80;10.20;;;21.30;99.90;;;;;;5086866;27;20482;-82
2023/06/21 07:10:58;;;;;;;16.02;11.20;;;21.10;99.90;;;;;;5067308;28;20062;-82
2023/06/21 07:13:24;;;;;;;15.55;10.27;;;21.20;99.90;;;;;;5081637;28;20192;-82
2023/06/21 07:15:50;;;;;;;13.68;10.02;;;21.40;99.90;;;;;;5081356;28;20066;-82
2023/06/21 07:18:16;;;;;;;18.70;10.52;;;21.50;99.90;;;;;;5060543;27;20035;-82
2023/06/21 07:20:41;;;;;;;14.85;9.77;;;21.70;99.90;;;;;;5086235;28;20051;-82
2023/06/21 07:23:07;;;;;;;13.18;9.95;;;21.70;99.90;;;;;;5084896;27;20464;-82
2023/06/21 07:25:33;;;;;;;14.18;9.32;;;21.70;99.90;;;;;;5067429;28;20285;-82
2023/06/21 07:27:58;;;;;;;11.23;8.80;;;21.70;99.90;;;;;;5080395;28;20043;-82
2023/06/21 07:30:24;;;;;;;12.07;8.48;;;21.60;99.90;;;;;;5067596;27;20046;-82
2023/06/21 07:32:50;;;;;;;13.57;9.02;;;21.60;99.90;;;;;;5073217;27;20049;-82
2023/06/21 07:35:16;;;;;;;11.45;8.35;;;21.80;99.90;;;;;;5077189;28;20040;-81
2023/06/21 07:37:43;;;;;;;13.15;9.30;;;21.90;99.90;;;;;;5065965;28;20035;-81
2023/06/21 07:40:10;;;;;;;13.65;9.43;;;21.80;99.90;;;;;;5070571;28;20039;-82
2023/06/21 07:42:39;;;;;;;13.82;8.90;;;21.90;99.90;;;;;;5079128;28;20403;-82
2023/06/21 07:45:06;;;;;;;10.85;8.02;;;22.10;99.90;;;;;;5074857;28;20402;-82
2023/06/21 07:47:32;;;;;;;11.95;8.82;;;22.20;99.90;;;;;;5089226;28;20486;-81
2023/06/21 07:49:58;;;;;;;10.93;8.05;;;22.00;99.90;;;;;;5071504;28;20039;-81
2023/06/21 07:52:24;;;;;;;13.48;8.40;;;22.30;99.90;;;;;;5087556;28;20066;-81
2023/06/21 07:54:50;;;;;;;12.93;8.88;;;22.60;99.90;;;;;;5075725;28;20482;-82
2023/06/21 07:57:16;;;;;;;13.88;8.75;;;22.30;99.90;;;;;;5063365;28;20031;-82
2023/06/21 07:59:42;;;;;;;13.35;8.40;;;22.30;99.90;;;;;;5058463;28;20681;-82
2023/06/21 08:02:09;;;;;;;10.60;8.23;;;22.40;99.90;;;;;;5078326;28;20518;-82
2023/06/21 08:04:35;;;;;;;11.70;8.40;;;22.50;99.90;;;;;;5067244;28;20036;-81
2023/06/21 08:07:01;;;;;;;13.20;8.50;;;22.50;99.90;;;;;;5069927;28;20188;-82
2023/06/21 08:09:27;;;;;;;10.77;7.88;;;22.20;99.90;;;;;;5058851;28;20584;-82
2023/06/21 08:11:53;;;;;;;11.60;8.15;;;22.50;99.90;;;;;;5081226;28;20044;-82
2023/06/21 08:14:18;;;;;;;9.55;7.80;;;22.20;99.90;;;;;;5073521;28;20108;-82
2023/06/21 08:16:44;;;;;;;11.27;7.53;;;22.20;99.90;;;;;;5078727;28;20445;-82
2023/06/21 08:19:10;;;;;;;10.25;7.32;;;22.30;99.90;;;;;;5070666;28;20387;-82
2023/06/21 08:21:36;;;;;;;9.98;7.32;;;22.20;99.90;;;;;;5071310;28;20065;-82
2023/06/21 08:24:02;;;;;;;13.27;6.65;;;22.40;99.90;;;;;;5067341;28;20047;-82
2023/06/21 08:26:28;;;;;;;9.48;6.65;;;22.70;99.90;;;;;;5065122;28;20032;-81
2023/06/21 08:28:53;;;;;;;8.63;6.50;;;22.80;99.90;;;;;;5066501;28;20514;-82
2023/06/21 08:31:19;;;;;;;10.45;7.03;;;23.00;99.90;;;;;;5079768;28;20031;-81
2023/06/21 08:33:45;;;;;;;9.40;6.82;;;23.10;99.90;;;;;;5086423;28;20501;-81
2023/06/21 08:36:11;;;;;;;11.43;7.13;;;23.30;99.90;;;;;;5068032;28;20163;-82
2023/06/21 08:38:37;;;;;;;9.63;7.20;;;23.60;99.90;;;;;;5063333;28;20078;-82
2023/06/21 08:41:04;;;;;;;10.95;7.10;;;23.40;99.90;;;;;;5072471;28;20071;-81
2023/06/21 08:43:31;;;;;;;10.95;7.35;;;23.40;99.90;;;;;;5081703;28;20024;-82
2023/06/21 08:45:58;;;;;;;9.85;6.35;;;23.30;99.90;;;;;;5066991;28;20043;-82
2023/06/21 08:48:28;;;;;;;8.85;6.43;;;22.80;99.90;;;;;;5068871;28;20039;-82
2023/06/21 08:50:55;;;;;;;11.23;6.47;;;23.20;99.90;;;;;;5067412;28;20070;-82
2023/06/21 08:53:31;;;;;;;9.90;6.57;;;23.40;99.90;;;;;;5063537;28;20031;-82
2023/06/21 08:55:59;;;;;;;10.10;6.47;;;23.30;99.90;;;;;;5069269;28;20046;-82
2023/06/21 08:58:27;;;;;;;9.05;5.68;;;23.40;99.90;;;;;;5068809;27;20458;-82
2023/06/21 09:00:58;;;;;;;11.70;5.50;;;23.40;99.90;;;;;;5070891;27;20038;-81
2023/06/21 09:03:32;;;;;;;8.50;5.72;;;23.60;99.90;;;;;;5072040;27;20526;-81
2023/06/21 09:06:10;;;;;;;7.72;5.78;;;23.40;99.90;;;;;;5067221;27;20041;-81
2023/06/21 09:08:39;;;;;;;9.55;5.28;;;23.90;99.90;;;;;;5080553;27;20509;-81
2023/06/21 09:11:07;;;;;;;8.73;6.30;;;23.80;99.90;;;;;;5087801;28;20451;-82
2023/06/21 09:13:34;;;;;;;8.30;6.13;;;23.70;99.90;;;;;;5069295;28;20071;-81
2023/06/21 09:16:03;;;;;;;8.93;5.93;;;23.40;99.90;;;;;;5072368;28;20055;-82
2023/06/21 09:18:35;;;;;;;7.70;5.45;;;23.30;99.90;;;;;;5076771;27;20043;-81
2023/06/21 09:21:03;;;;;;;6.93;4.75;;;23.40;99.90;;;;;;5076325;27;20474;-81
2023/06/21 09:23:29;;;;;;;10.00;5.10;;;23.40;99.90;;;;;;5074315;27;20122;-82
2023/06/21 09:25:55;;;;;;;6.38;5.20;;;23.70;99.90;;;;;;5068099;28;20101;-81
2023/06/21 09:28:22;;;;;;;7.60;5.65;;;23.70;99.90;;;;;;5076481;28;20051;-82
2023/06/21 09:30:47;;;;;;;11.18;4.90;;;23.90;99.90;;;;;;5078343;28;20035;-81
2023/06/21 09:33:14;;;;;;;8.07;5.10;;;24.30;99.90;;;;;;5073891;28;20042;-81
2023/06/21 09:35:41;;;;;;;6.72;4.38;;;24.70;99.90;;;;;;5113032;27;20040;-82
2023/06/21 09:38:23;;;;;;;5.75;4.60;;;24.60;99.90;;;;;;5064059;27;20096;-82
2023/06/21 09:40:49;;;;;;;5.70;4.30;;;24.90;99.90;;;;;;5071425;27;20399;-82
2023/06/21 09:43:15;;;;;;;6.90;5.20;;;24.90;99.90;;;;;;5077410;28;20047;-82
2023/06/21 09:45:41;;;;;;;8.18;5.40;;;24.80;99.90;;;;;;5075612;28;20600;-81
2023/06/21 09:48:06;;;;;;;8.25;5.35;;;25.10;99.90;;;;;;5085383;27;20043;-82
2023/06/21 09:50:42;;;;;;;7.90;4.90;;;25.10;99.90;;;;;;5070247;28;20036;-81
2023/06/21 09:53:11;;;;;;;8.20;5.03;;;25.30;99.90;;;;;;5074770;27;20330;-82
2023/06/21 09:55:43;;;;;;;5.57;4.53;;;25.20;99.90;;;;;;5065081;28;20036;-82
2023/06/21 09:58:08;;;;;;;6.50;4.70;;;25.60;99.90;;;;;;5076006;28;20097;-82
2023/06/21 10:00:35;;;;;;;6.38;4.75;;;25.50;99.90;;;;;;5070633;27;20035;-81
2023/06/21 10:03:03;;;;;;;6.90;5.25;;;25.90;99.90;;;;;;5071294;27;20034;-81
2023/06/21 10:05:28;;;;;;;8.50;5.65;;;25.50;99.90;;;;;;5076441;27;20047;-82
2023/06/21 10:07:54;;;;;;;7.90;5.28;;;25.10;99.90;;;;;;5064952;28;20048;-82
2023/06/21 10:10:20;;;;;;;10.07;4.90;;;25.50;99.90;;;;;;5088362;27;20043;-82
2023/06/21 10:12:53;;;;;;;6.60;4.40;;;25.60;99.90;;;;;;5069448;28;20340;-81
2023/06/21 10:15:19;;;;;;;6.68;4.25;;;26.00;99.90;;;;;;5082382;27;20548;-82
2023/06/21 10:17:49;;;;;;;5.93;4.50;;;26.20;99.90;;;;;;5085130;28;20043;-81
2023/06/21 10:20:18;;;;;;;5.22;3.53;;;26.30;99.90;;;;;;5076566;27;20428;-82
2023/06/21 10:22:46;;;;;;;5.60;3.92;;;26.10;99.90;;;;;;5088194;28;20046;-81
2023/06/21 10:25:15;;;;;;;9.20;4.15;;;26.80;99.90;;;;;;5067454;27;20125;-82
2023/06/21 10:27:45;;;;;;;5.90;3.85;;;27.20;99.90;;;;;;5071862;28;20109;-82
2023/06/21 10:30:13;;;;;;;3.38;2.85;;;26.60;99.90;;;;;;5084379;27;20053;-81
2023/06/21 10:32:41;;;;;;;4.32;3.42;;;26.50;99.90;;;;;;5087569;27;20053;-81
2023/06/21 10:35:19;;;;;;;5.28;3.75;;;25.80;99.90;;;;;;5079906;28;20053;-81
2023/06/21 10:37:58;;;;;;;4.22;3.33;;;25.80;99.90;;;;;;5066413;27;20038;-81
2023/06/21 10:40:24;;;;;;;5.32;3.33;;;26.20;1.00;;;;;;5087684;27;20051;-81
2023/06/21 10:42:53;;;;;;;5.32;3.40;;;26.10;38.60;;;;;;5055202;28;20041;-81
2023/06/21 10:45:19;;;;;;;8.55;3.40;;;26.90;99.90;;;;;;5065298;27;20037;-81
2023/06/21 10:47:47;;;;;;;5.43;3.38;;;26.70;1.00;;;;;;5070151;27;20045;-81
2023/06/21 10:50:14;;;;;;;5.32;3.00;;;26.80;99.90;;;;;;5089485;27;20341;-81
2023/06/21 10:52:41;;;;;;;3.38;2.60;;;26.20;99.90;;;;;;5077495;28;20047;-81
2023/06/21 10:55:07;;;;;;;4.68;2.65;;;26.60;99.90;;;;;;5066699;27;20181;-81
2023/06/21 10:57:34;;;;;;;5.47;2.80;;;26.60;99.90;;;;;;5071046;28;20122;-81
2023/06/21 11:00:03;;;;;;;5.13;2.67;;;26.10;99.90;;;;;;5060563;28;20103;-81
2023/06/21 11:02:29;;;;;;;3.58;2.53;;;26.20;1.00;;;;;;5088590;27;20038;-81
2023/06/21 11:05:20;;;;;;;3.17;2.60;;;25.70;1.00;;;;;;5061037;27;20073;-81
2023/06/21 11:08:04;;;;;;;5.55;3.28;;;25.30;99.90;;;;;;5088837;27;20546;-81
2023/06/21 11:10:47;;;;;;;4.38;3.20;;;25.10;99.90;;;;;;5081343;27;20072;-81
2023/06/21 11:13:14;;;;;;;3.90;3.10;;;24.90;26.20;;;;;;5081675;28;20039;-81
2023/06/21 11:15:42;;;;;;;4.18;3.30;;;24.90;99.90;;;;;;5078443;27;20055;-81
2023/06/21 11:18:10;;;;;;;4.78;2.83;;;25.50;99.90;;;;;;5075000;27;20576;-81
2023/06/21 11:20:45;;;;;;;4.55;2.85;;;26.40;99.90;;;;;;5073846;27;20289;-81
2023/06/21 11:23:18;;;;;;;3.63;2.78;;;26.80;1.00;;;;;;5080951;28;20040;-81
2023/06/21 11:26:02;;;;;;;6.00;2.70;;;27.40;99.90;;;;;;5085938;27;20046;-81
2023/06/21 11:28:32;;;;;;;4.78;2.55;;;27.30;99.90;;;;;;5067356;28;20085;-81
2023/06/21 11:31:01;;;;;;;7.47;3.20;;;27.50;99.90;;;;;;5060745;27;20130;-81
2023/06/21 11:33:33;;;;;;;4.82;2.75;;;27.30;99.90;;;;;;5060095;27;20034;-81
2023/06/21 11:36:28;;;;;;;4.90;3.30;;;27.90;99.90;;;;;;5067999;28;20205;-81
2023/06/21 11:39:06;;;;;;;4.50;3.10;;;27.80;99.90;;;;;;5081525;28;20348;-81
2023/06/21 11:41:33;;;;;;;7.13;3.03;;;27.00;95.00;;;;;;5061294;28;20127;-81
2023/06/21 11:43:58;;;;;;;7.30;3.17;;;27.30;99.90;;;;;;5066945;28;20078;-81
2023/06/21 11:46:27;;;;;;;5.00;2.50;;;27.50;99.90;;;;;;5058916;28;20506;-81
2023/06/21 11:49:00;;;;;;;2.90;2.28;;;27.20;99.90;;;;;;5070366;27;20035;-81
2023/06/21 11:51:28;;;;;;;3.17;2.60;;;27.00;1.00;;;;;;5088604;28;20047;-81
2023/06/21 11:53:57;;;;;;;5.63;2.63;;;27.50;99.90;;;;;;5066236;28;20746;-81
2023/06/21 11:56:29;;;;;;;5.45;3.22;;;28.00;1.00;;;;;;5072382;28;20048;-81
2023/06/21 11:58:54;;;;;;;5.85;3.10;;;27.80;1.00;;;;;;5057643;28;20046;-81
2023/06/21 12:01:20;;;;;;;5.43;3.88;;;27.60;99.90;;;;;;5062577;28;20039;-81
2023/06/21 12:03:50;;;;;;;4.50;2.90;;;27.60;99.90;;;;;;5057305;28;20043;-82
2023/06/21 12:06:17;;;;;;;4.50;3.53;;;27.50;99.90;;;;;;5085849;28;20348;-81
2023/06/21 12:08:42;;;;;;;4.18;3.38;;;27.00;99.90;;;;;;5089845;28;20063;-81
2023/06/21 12:11:09;;;;;;;4.88;3.60;;;26.70;99.90;;;;;;5061859;28;20123;-81
2023/06/21 12:13:38;;;;;;;4.32;2.88;;;27.50;99.90;;;;;;5074957;28;20044;-81
2023/06/21 12:16:06;;;;;;;4.78;2.92;;;27.70;99.90;;;;;;5067600;28;21004;-81
2023/06/21 12:18:33;;;;;;;4.07;2.92;;;27.90;99.90;;;;;;5061512;28;20529;-81
2023/06/21 12:21:07;;;;;;;6.30;3.30;;;28.60;99.90;;;;;;5070400;28;20035;-81
2023/06/21 12:23:32;;;;;;;4.82;3.30;;;28.30;94.40;;;;;;5089287;28;20150;-81
2023/06/21 12:26:05;;;;;;;5.63;3.40;;;28.60;99.90;;;;;;5080740;28;20100;-81
2023/06/21 12:28:32;;;;;;;5.93;3.30;;;27.30;1.00;;;;;;5064910;28;20067;-81
2023/06/21 12:31:00;;;;;;;5.72;3.33;;;27.10;1.00;;;;;;5079418;27;20036;-82
2023/06/21 12:33:45;;;;;;;5.25;3.00;;;26.70;99.90;;;;;;5072818;27;20518;-81
2023/06/21 12:36:26;;;;;;;4.72;3.70;;;26.30;1.00;;;;;;5071412;28;20043;-81
2023/06/21 12:39:09;;;;;;;3.03;2.67;;;27.30;1.00;;;;;;5062879;27;20050;-81